Últimos artigos:
MSK144, FT8… using an IC-9700 and WSJT-X
Resolvendo um problema de áudio no GNU Radio
Converter um número Real para o formato binário em vírgula flutuante segundo a Norma IEEE-754
VirtualBox sobre Debian 10 (buster) não encontra dispositivos USB
Falta de som no Morse Runner em Linux?
Touchpad tapping, em Debian Buster (10)
Últimas fotos:
Últimos METARs:
LPAZ 160930Z 04018KT 9999 FEW024 BKN032 14...
LPFR 160930Z 07009KT 9999 FEW015 13/09 Q10...
LPHR 160930Z 05012KT 9999 FEW015 SCT035 12...
LPLA 160900Z /////KT 9999 -SHRA BKN025 12/...
LPMA 160930Z 17013KT 130V190 9999 FEW015 1...
LPPD 160930Z 04015KT 9999 FEW022 13/06 Q10...
LPPR 160930Z 11010KT CAVOK 11/05 Q1029=
LPPS 160930Z 14020KT 9999 FEW015 18/13 Q10...
LPPT 160930Z 06006KT 010V080 9999 FEW030 0...
Últimos QSOs:
2021/08/24-22:06 70cm EA8TL (JORGE)
2021/08/24-21:44 2m EA7BW (JUAN)
2021/08/24-21:43 2m CN8JQ (MOHAMED)
2021/08/24-21:42 2m EA8HB (HUGO)
2021/08/24-21:40 2m F4DXV (JEROME)
2021/08/24-21:39 2m EA1FID (PABLO)
  UTC

Fatal error: Allowed memory size of 268435456 bytes exhausted (tried to allocate 16777216 bytes) in /web/htdocs/www.airlomba.net/home/index.php on line 266